Rhein, Canada
Current Conditions -  °F | °C
As of 7:00 AM on Friday 19 Dec 2014 (Local Time) from CYQV Reporting Station
Haze Haze  
Wind Chill: 15°   Ceiling: 500
Heat Index: 21°   Visibility: 4mi
Dew Point: 19°   Wind: 5mph
Humidity: 93%   Direction: 160°SSE
Pressure: 29.92"   Gusts: NA
Location:  51.35°N, 102.19°W
Report Text: CYQV 191300Z AUTO 16004KT 4SM BR OVC005 M06/M07 A2992 RMK SLP167
Loading
Personal Weather Stations






























Interactive Weather Map New forecast layout! Learn more

10-Day Weather Forecast

Advertisements
Track Severe Weather on mobile